sensor_id;sensor_type;location;lat;lon;timestamp;P1;durP1;ratioP1;P2;durP2;ratioP2
49384;SDS011;36795;45.028;38.968;2022-12-29T00:00:02;27.30;;;9.07;;
49384;SDS011;36795;45.028;38.968;2022-12-29T00:02:57;27.33;;;7.45;;
49384;SDS011;36795;45.028;38.968;2022-12-29T00:05:44;24.83;;;7.30;;
49384;SDS011;36795;45.028;38.968;2022-12-29T00:08:30;26.23;;;8.40;;
49384;SDS011;36795;45.028;38.968;2022-12-29T00:11:26;23.12;;;7.60;;
49384;SDS011;36795;45.028;38.968;2022-12-29T00:14:13;27.40;;;7.37;;
49384;SDS011;36795;45.028;38.968;2022-12-29T00:17:18;24.30;;;7.65;;
49384;SDS011;36795;45.028;38.968;2022-12-29T00:20:04;23.20;;;6.90;;
49384;SDS011;36795;45.028;38.968;2022-12-29T00:23:20;23.52;;;7.05;;
49384;SDS011;36795;45.028;38.968;2022-12-29T00:26:25;25.25;;;7.07;;
49384;SDS011;36795;45.028;38.968;2022-12-29T00:29:30;27.17;;;7.93;;
49384;SDS011;36795;45.028;38.968;2022-12-29T00:35:47;25.45;;;7.72;;
49384;SDS011;36795;45.028;38.968;2022-12-29T00:38:40;25.73;;;7.78;;
49384;SDS011;36795;45.028;38.968;2022-12-29T00:41:47;24.60;;;7.85;;
49384;SDS011;36795;45.028;38.968;2022-12-29T00:44:51;23.75;;;8.18;;
49384;SDS011;36795;45.028;38.968;2022-12-29T00:47:38;26.37;;;7.82;;
49384;SDS011;36795;45.028;38.968;2022-12-29T00:50:24;25.85;;;7.82;;
49384;SDS011;36795;45.028;38.968;2022-12-29T00:53:11;26.12;;;7.95;;
49384;SDS011;36795;45.028;38.968;2022-12-29T00:55:57;30.45;;;8.57;;
49384;SDS011;36795;45.028;38.968;2022-12-29T00:58:44;25.80;;;8.55;;
49384;SDS011;36795;45.028;38.968;2022-12-29T01:01:33;24.98;;;7.85;;
49384;SDS011;36795;45.028;38.968;2022-12-29T01:04:20;25.58;;;8.93;;
49384;SDS011;36795;45.028;38.968;2022-12-29T01:07:07;25.02;;;8.98;;
49384;SDS011;36795;45.028;38.968;2022-12-29T01:09:55;24.15;;;8.65;;
49384;SDS011;36795;45.028;38.968;2022-12-29T01:12:56;26.42;;;8.38;;
49384;SDS011;36795;45.028;38.968;2022-12-29T01:15:48;24.95;;;8.48;;
49384;SDS011;36795;45.028;38.968;2022-12-29T01:18:34;26.15;;;8.85;;
49384;SDS011;36795;45.028;38.968;2022-12-29T01:21:21;27.62;;;8.07;;
49384;SDS011;36795;45.028;38.968;2022-12-29T01:24:09;28.38;;;9.27;;
49384;SDS011;36795;45.028;38.968;2022-12-29T01:26:55;25.67;;;8.57;;
49384;SDS011;36795;45.028;38.968;2022-12-29T01:29:42;25.35;;;9.45;;
49384;SDS011;36795;45.028;38.968;2022-12-29T01:32:33;28.10;;;8.82;;
49384;SDS011;36795;45.028;38.968;2022-12-29T01:35:19;27.45;;;8.30;;
49384;SDS011;36795;45.028;38.968;2022-12-29T01:38:06;27.33;;;8.43;;
49384;SDS011;36795;45.028;38.968;2022-12-29T01:40:53;29.52;;;8.60;;
49384;SDS011;36795;45.028;38.968;2022-12-29T01:43:41;23.08;;;8.13;;
49384;SDS011;36795;45.028;38.968;2022-12-29T01:46:31;25.30;;;8.27;;
49384;SDS011;36795;45.028;38.968;2022-12-29T01:49:21;26.65;;;8.88;;
49384;SDS011;36795;45.028;38.968;2022-12-29T01:52:09;24.75;;;8.50;;
49384;SDS011;36795;45.028;38.968;2022-12-29T01:54:56;27.58;;;9.70;;
49384;SDS011;36795;45.028;38.968;2022-12-29T01:57:44;24.37;;;8.25;;
49384;SDS011;36795;45.028;38.968;2022-12-29T02:00:32;26.17;;;8.75;;
49384;SDS011;36795;45.028;38.968;2022-12-29T02:03:19;26.10;;;8.63;;
49384;SDS011;36795;45.028;38.968;2022-12-29T02:06:53;24.45;;;8.65;;
49384;SDS011;36795;45.028;38.968;2022-12-29T02:09:13;25.58;;;9.35;;
49384;SDS011;36795;45.028;38.968;2022-12-29T02:11:59;24.70;;;9.10;;
49384;SDS011;36795;45.028;38.968;2022-12-29T02:14:46;24.92;;;8.73;;
49384;SDS011;36795;45.028;38.968;2022-12-29T02:20:31;25.90;;;9.40;;
49384;SDS011;36795;45.028;38.968;2022-12-29T02:26:16;27.62;;;9.02;;
49384;SDS011;36795;45.028;38.968;2022-12-29T02:29:10;27.90;;;8.95;;
49384;SDS011;36795;45.028;38.968;2022-12-29T02:38:09;29.50;;;9.63;;
49384;SDS011;36795;45.028;38.968;2022-12-29T02:41:12;25.42;;;8.20;;
49384;SDS011;36795;45.028;38.968;2022-12-29T02:47:18;26.08;;;8.27;;
49384;SDS011;36795;45.028;38.968;2022-12-29T02:50:11;26.45;;;8.70;;
49384;SDS011;36795;45.028;38.968;2022-12-29T02:53:01;27.90;;;9.10;;
49384;SDS011;36795;45.028;38.968;2022-12-29T02:55:49;27.40;;;9.07;;
49384;SDS011;36795;45.028;38.968;2022-12-29T02:58:35;21.90;;;8.48;;
49384;SDS011;36795;45.028;38.968;2022-12-29T03:01:29;25.27;;;8.63;;
49384;SDS011;36795;45.028;38.968;2022-12-29T03:19:15;27.58;;;8.52;;
49384;SDS011;36795;45.028;38.968;2022-12-29T03:22:04;25.27;;;8.75;;
49384;SDS011;36795;45.028;38.968;2022-12-29T03:25:20;27.83;;;7.97;;
49384;SDS011;36795;45.028;38.968;2022-12-29T03:28:11;27.37;;;7.85;;
49384;SDS011;36795;45.028;38.968;2022-12-29T03:30:59;28.42;;;8.38;;
49384;SDS011;36795;45.028;38.968;2022-12-29T03:33:46;26.37;;;8.27;;
49384;SDS011;36795;45.028;38.968;2022-12-29T03:36:35;28.12;;;9.20;;
49384;SDS011;36795;45.028;38.968;2022-12-29T03:39:26;25.60;;;7.93;;
49384;SDS011;36795;45.028;38.968;2022-12-29T03:42:15;30.05;;;8.80;;
49384;SDS011;36795;45.028;38.968;2022-12-29T03:45:03;24.08;;;8.05;;
49384;SDS011;36795;45.028;38.968;2022-12-29T03:47:51;30.02;;;8.57;;
49384;SDS011;36795;45.028;38.968;2022-12-29T03:50:37;25.65;;;8.35;;
49384;SDS011;36795;45.028;38.968;2022-12-29T03:53:25;29.77;;;9.07;;
49384;SDS011;36795;45.028;38.968;2022-12-29T03:56:11;25.67;;;8.23;;
49384;SDS011;36795;45.028;38.968;2022-12-29T03:58:58;27.85;;;9.43;;
49384;SDS011;36795;45.028;38.968;2022-12-29T04:01:46;26.55;;;8.70;;
49384;SDS011;36795;45.028;38.968;2022-12-29T04:04:33;25.50;;;8.82;;
49384;SDS011;36795;45.028;38.968;2022-12-29T04:07:19;23.87;;;8.27;;
49384;SDS011;36795;45.028;38.968;2022-12-29T04:10:06;30.88;;;10.25;;
49384;SDS011;36795;45.028;38.968;2022-12-29T04:12:52;29.00;;;9.35;;
49384;SDS011;36795;45.028;38.968;2022-12-29T04:15:40;27.98;;;9.65;;
49384;SDS011;36795;45.028;38.968;2022-12-29T04:18:27;34.53;;;9.55;;
49384;SDS011;36795;45.028;38.968;2022-12-29T04:21:13;32.13;;;9.40;;
49384;SDS011;36795;45.028;38.968;2022-12-29T04:24:00;30.70;;;10.35;;
49384;SDS011;36795;45.028;38.968;2022-12-29T04:26:47;32.40;;;11.27;;
49384;SDS011;36795;45.028;38.968;2022-12-29T04:29:34;27.42;;;9.18;;
49384;SDS011;36795;45.028;38.968;2022-12-29T04:32:21;30.15;;;9.25;;
49384;SDS011;36795;45.028;38.968;2022-12-29T04:35:10;33.08;;;10.43;;
49384;SDS011;36795;45.028;38.968;2022-12-29T04:37:57;31.83;;;10.15;;
49384;SDS011;36795;45.028;38.968;2022-12-29T04:40:44;25.88;;;9.85;;
49384;SDS011;36795;45.028;38.968;2022-12-29T04:43:30;34.88;;;10.70;;
49384;SDS011;36795;45.028;38.968;2022-12-29T04:46:18;33.45;;;10.13;;
49384;SDS011;36795;45.028;38.968;2022-12-29T04:49:10;34.92;;;11.00;;
49384;SDS011;36795;45.028;38.968;2022-12-29T04:51:56;33.00;;;12.00;;
49384;SDS011;36795;45.028;38.968;2022-12-29T04:54:43;41.40;;;13.82;;
49384;SDS011;36795;45.028;38.968;2022-12-29T04:57:30;38.88;;;10.93;;
49384;SDS011;36795;45.028;38.968;2022-12-29T05:00:17;39.85;;;13.32;;
49384;SDS011;36795;45.028;38.968;2022-12-29T05:03:04;45.60;;;16.27;;
49384;SDS011;36795;45.028;38.968;2022-12-29T05:05:53;34.28;;;11.45;;
49384;SDS011;36795;45.028;38.968;2022-12-29T05:08:40;33.42;;;10.50;;
49384;SDS011;36795;45.028;38.968;2022-12-29T05:11:27;32.45;;;9.75;;
49384;SDS011;36795;45.028;38.968;2022-12-29T05:14:14;34.35;;;12.13;;
49384;SDS011;36795;45.028;38.968;2022-12-29T05:17:02;35.42;;;11.02;;
49384;SDS011;36795;45.028;38.968;2022-12-29T05:19:48;35.38;;;10.43;;
49384;SDS011;36795;45.028;38.968;2022-12-29T05:22:36;38.50;;;11.38;;
49384;SDS011;36795;45.028;38.968;2022-12-29T05:25:22;30.75;;;9.93;;
49384;SDS011;36795;45.028;38.968;2022-12-29T05:28:10;28.67;;;10.30;;
49384;SDS011;36795;45.028;38.968;2022-12-29T05:30:56;32.03;;;10.85;;
49384;SDS011;36795;45.028;38.968;2022-12-29T05:33:42;48.05;;;19.12;;
49384;SDS011;36795;45.028;38.968;2022-12-29T05:36:31;34.35;;;12.07;;
49384;SDS011;36795;45.028;38.968;2022-12-29T05:39:17;36.75;;;9.80;;
49384;SDS011;36795;45.028;38.968;2022-12-29T05:42:06;29.98;;;9.70;;
49384;SDS011;36795;45.028;38.968;2022-12-29T05:44:53;35.10;;;10.57;;
49384;SDS011;36795;45.028;38.968;2022-12-29T05:47:40;34.72;;;9.57;;
49384;SDS011;36795;45.028;38.968;2022-12-29T05:50:27;28.17;;;8.68;;
49384;SDS011;36795;45.028;38.968;2022-12-29T05:53:14;24.48;;;8.50;;
49384;SDS011;36795;45.028;38.968;2022-12-29T05:56:01;27.83;;;7.82;;
49384;SDS011;36795;45.028;38.968;2022-12-29T05:58:47;28.17;;;10.38;;
49384;SDS011;36795;45.028;38.968;2022-12-29T06:01:33;29.23;;;7.70;;
49384;SDS011;36795;45.028;38.968;2022-12-29T06:04:21;29.67;;;9.02;;
49384;SDS011;36795;45.028;38.968;2022-12-29T06:07:06;24.33;;;6.90;;
49384;SDS011;36795;45.028;38.968;2022-12-29T06:09:54;27.37;;;7.70;;
49384;SDS011;36795;45.028;38.968;2022-12-29T06:12:41;29.05;;;7.82;;
49384;SDS011;36795;45.028;38.968;2022-12-29T06:15:27;33.42;;;9.90;;
49384;SDS011;36795;45.028;38.968;2022-12-29T06:18:14;38.88;;;10.80;;
49384;SDS011;36795;45.028;38.968;2022-12-29T06:21:03;36.88;;;12.00;;
49384;SDS011;36795;45.028;38.968;2022-12-29T06:23:50;37.95;;;11.98;;
49384;SDS011;36795;45.028;38.968;2022-12-29T06:26:36;35.30;;;10.50;;
49384;SDS011;36795;45.028;38.968;2022-12-29T06:29:22;34.97;;;11.40;;
49384;SDS011;36795;45.028;38.968;2022-12-29T06:32:09;30.88;;;10.57;;
49384;SDS011;36795;45.028;38.968;2022-12-29T06:34:57;37.38;;;12.30;;
49384;SDS011;36795;45.028;38.968;2022-12-29T06:37:44;36.03;;;11.38;;
49384;SDS011;36795;45.028;38.968;2022-12-29T06:40:30;67.47;;;11.00;;
49384;SDS011;36795;45.028;38.968;2022-12-29T06:43:18;39.03;;;10.20;;
49384;SDS011;36795;45.028;38.968;2022-12-29T06:46:05;31.25;;;9.23;;
49384;SDS011;36795;45.028;38.968;2022-12-29T06:48:52;29.87;;;7.95;;
49384;SDS011;36795;45.028;38.968;2022-12-29T06:51:38;28.35;;;8.38;;
49384;SDS011;36795;45.028;38.968;2022-12-29T06:54:24;29.75;;;8.23;;
49384;SDS011;36795;45.028;38.968;2022-12-29T06:57:10;28.25;;;9.15;;
49384;SDS011;36795;45.028;38.968;2022-12-29T06:59:57;29.02;;;8.93;;
49384;SDS011;36795;45.028;38.968;2022-12-29T07:02:43;28.80;;;8.88;;
49384;SDS011;36795;45.028;38.968;2022-12-29T07:05:30;30.65;;;9.93;;
49384;SDS011;36795;45.028;38.968;2022-12-29T07:08:17;33.28;;;11.15;;
49384;SDS011;36795;45.028;38.968;2022-12-29T07:11:04;28.62;;;9.27;;
49384;SDS011;36795;45.028;38.968;2022-12-29T07:13:50;34.80;;;11.07;;
49384;SDS011;36795;45.028;38.968;2022-12-29T07:16:37;34.92;;;11.38;;
49384;SDS011;36795;45.028;38.968;2022-12-29T07:19:23;32.20;;;10.48;;
49384;SDS011;36795;45.028;38.968;2022-12-29T07:22:10;32.55;;;10.52;;
49384;SDS011;36795;45.028;38.968;2022-12-29T07:24:56;29.70;;;8.98;;
49384;SDS011;36795;45.028;38.968;2022-12-29T07:27:45;22.52;;;6.43;;
49384;SDS011;36795;45.028;38.968;2022-12-29T07:30:31;22.02;;;6.72;;
49384;SDS011;36795;45.028;38.968;2022-12-29T07:33:18;19.40;;;5.80;;
49384;SDS011;36795;45.028;38.968;2022-12-29T07:36:04;22.37;;;6.22;;
49384;SDS011;36795;45.028;38.968;2022-12-29T07:38:50;29.70;;;6.35;;
49384;SDS011;36795;45.028;38.968;2022-12-29T07:41:37;25.30;;;6.37;;
49384;SDS011;36795;45.028;38.968;2022-12-29T07:44:24;19.20;;;5.75;;
49384;SDS011;36795;45.028;38.968;2022-12-29T07:47:11;28.58;;;6.45;;
49384;SDS011;36795;45.028;38.968;2022-12-29T07:50:00;20.02;;;5.18;;
49384;SDS011;36795;45.028;38.968;2022-12-29T07:52:48;25.77;;;6.53;;
49384;SDS011;36795;45.028;38.968;2022-12-29T07:55:35;24.87;;;6.87;;
49384;SDS011;36795;45.028;38.968;2022-12-29T07:58:21;24.90;;;6.47;;
49384;SDS011;36795;45.028;38.968;2022-12-29T08:01:08;18.48;;;5.90;;
49384;SDS011;36795;45.028;38.968;2022-12-29T08:03:57;23.25;;;6.10;;
49384;SDS011;36795;45.028;38.968;2022-12-29T08:06:53;21.80;;;5.90;;
49384;SDS011;36795;45.028;38.968;2022-12-29T08:09:39;21.30;;;5.65;;
49384;SDS011;36795;45.028;38.968;2022-12-29T08:12:25;23.02;;;6.20;;
49384;SDS011;36795;45.028;38.968;2022-12-29T08:15:12;21.80;;;5.70;;
49384;SDS011;36795;45.028;38.968;2022-12-29T08:17:58;25.83;;;6.57;;
49384;SDS011;36795;45.028;38.968;2022-12-29T08:20:44;22.15;;;6.35;;
49384;SDS011;36795;45.028;38.968;2022-12-29T08:23:32;22.67;;;6.57;;
49384;SDS011;36795;45.028;38.968;2022-12-29T08:26:21;31.12;;;6.60;;
49384;SDS011;36795;45.028;38.968;2022-12-29T08:29:07;20.45;;;7.37;;
49384;SDS011;36795;45.028;38.968;2022-12-29T08:31:54;25.23;;;6.68;;
49384;SDS011;36795;45.028;38.968;2022-12-29T08:34:40;20.25;;;6.45;;
49384;SDS011;36795;45.028;38.968;2022-12-29T08:37:26;21.48;;;5.35;;
49384;SDS011;36795;45.028;38.968;2022-12-29T08:40:12;20.35;;;5.57;;
49384;SDS011;36795;45.028;38.968;2022-12-29T08:42:59;20.40;;;6.15;;
49384;SDS011;36795;45.028;38.968;2022-12-29T08:45:45;21.08;;;6.00;;
49384;SDS011;36795;45.028;38.968;2022-12-29T08:48:31;19.48;;;5.07;;
49384;SDS011;36795;45.028;38.968;2022-12-29T08:51:17;19.05;;;4.75;;
49384;SDS011;36795;45.028;38.968;2022-12-29T08:54:04;19.52;;;5.20;;
49384;SDS011;36795;45.028;38.968;2022-12-29T08:56:50;20.75;;;5.20;;
49384;SDS011;36795;45.028;38.968;2022-12-29T08:59:39;22.55;;;5.87;;
49384;SDS011;36795;45.028;38.968;2022-12-29T09:02:28;21.40;;;5.62;;
49384;SDS011;36795;45.028;38.968;2022-12-29T09:05:14;25.27;;;6.37;;
49384;SDS011;36795;45.028;38.968;2022-12-29T09:08:00;21.45;;;5.55;;
49384;SDS011;36795;45.028;38.968;2022-12-29T09:10:47;20.45;;;5.75;;
49384;SDS011;36795;45.028;38.968;2022-12-29T09:13:34;19.98;;;4.43;;
49384;SDS011;36795;45.028;38.968;2022-12-29T09:16:21;17.48;;;4.07;;
49384;SDS011;36795;45.028;38.968;2022-12-29T09:19:08;15.90;;;3.90;;
49384;SDS011;36795;45.028;38.968;2022-12-29T09:21:54;18.42;;;3.55;;
49384;SDS011;36795;45.028;38.968;2022-12-29T09:24:40;14.45;;;3.40;;
49384;SDS011;36795;45.028;38.968;2022-12-29T09:27:27;15.98;;;3.55;;
49384;SDS011;36795;45.028;38.968;2022-12-29T09:30:14;22.02;;;3.83;;
49384;SDS011;36795;45.028;38.968;2022-12-29T09:33:01;13.95;;;3.78;;
49384;SDS011;36795;45.028;38.968;2022-12-29T09:35:51;22.52;;;3.95;;
49384;SDS011;36795;45.028;38.968;2022-12-29T09:38:38;19.55;;;4.00;;
49384;SDS011;36795;45.028;38.968;2022-12-29T09:41:25;14.05;;;4.15;;
49384;SDS011;36795;45.028;38.968;2022-12-29T09:44:19;18.40;;;4.10;;
49384;SDS011;36795;45.028;38.968;2022-12-29T09:47:06;17.77;;;3.30;;
49384;SDS011;36795;45.028;38.968;2022-12-29T09:49:56;10.93;;;2.90;;
49384;SDS011;36795;45.028;38.968;2022-12-29T09:52:55;16.37;;;3.60;;
49384;SDS011;36795;45.028;38.968;2022-12-29T09:55:51;19.00;;;4.03;;
49384;SDS011;36795;45.028;38.968;2022-12-29T09:58:42;14.00;;;2.95;;
49384;SDS011;36795;45.028;38.968;2022-12-29T10:02:15;12.50;;;2.97;;
49384;SDS011;36795;45.028;38.968;2022-12-29T10:04:41;16.50;;;3.85;;
49384;SDS011;36795;45.028;38.968;2022-12-29T10:07:31;13.45;;;3.08;;
49384;SDS011;36795;45.028;38.968;2022-12-29T10:13:16;13.60;;;3.37;;
49384;SDS011;36795;45.028;38.968;2022-12-29T10:24:32;14.65;;;3.30;;
49384;SDS011;36795;45.028;38.968;2022-12-29T10:27:20;20.02;;;3.80;;
49384;SDS011;36795;45.028;38.968;2022-12-29T10:30:10;13.25;;;3.08;;
49384;SDS011;36795;45.028;38.968;2022-12-29T10:32:58;14.45;;;3.35;;
49384;SDS011;36795;45.028;38.968;2022-12-29T10:35:46;20.23;;;2.97;;
49384;SDS011;36795;45.028;38.968;2022-12-29T10:41:28;11.12;;;2.62;;
49384;SDS011;36795;45.028;38.968;2022-12-29T10:44:17;12.00;;;2.62;;
49384;SDS011;36795;45.028;38.968;2022-12-29T10:47:06;13.13;;;2.55;;
49384;SDS011;36795;45.028;38.968;2022-12-29T10:49:53;8.48;;;2.40;;
49384;SDS011;36795;45.028;38.968;2022-12-29T10:52:39;12.95;;;2.80;;
49384;SDS011;36795;45.028;38.968;2022-12-29T10:55:35;12.13;;;2.60;;
49384;SDS011;36795;45.028;38.968;2022-12-29T10:58:22;14.02;;;2.95;;
49384;SDS011;36795;45.028;38.968;2022-12-29T11:01:09;7.87;;;2.40;;
49384;SDS011;36795;45.028;38.968;2022-12-29T11:04:02;8.20;;;2.42;;
49384;SDS011;36795;45.028;38.968;2022-12-29T11:06:50;22.80;;;3.47;;
49384;SDS011;36795;45.028;38.968;2022-12-29T11:09:38;13.05;;;2.65;;
49384;SDS011;36795;45.028;38.968;2022-12-29T11:12:30;11.35;;;1.98;;
49384;SDS011;36795;45.028;38.968;2022-12-29T11:15:17;10.73;;;2.67;;
49384;SDS011;36795;45.028;38.968;2022-12-29T11:18:03;13.52;;;2.08;;
49384;SDS011;36795;45.028;38.968;2022-12-29T11:21:00;16.83;;;2.45;;
49384;SDS011;36795;45.028;38.968;2022-12-29T11:23:46;16.85;;;4.18;;
49384;SDS011;36795;45.028;38.968;2022-12-29T11:26:40;14.43;;;3.15;;
49384;SDS011;36795;45.028;38.968;2022-12-29T11:29:36;12.20;;;2.60;;
49384;SDS011;36795;45.028;38.968;2022-12-29T11:32:24;15.20;;;3.83;;
49384;SDS011;36795;45.028;38.968;2022-12-29T11:35:18;18.83;;;3.00;;
49384;SDS011;36795;45.028;38.968;2022-12-29T11:38:25;11.15;;;2.40;;
49384;SDS011;36795;45.028;38.968;2022-12-29T11:41:27;13.40;;;2.97;;
49384;SDS011;36795;45.028;38.968;2022-12-29T11:44:14;9.00;;;2.65;;
49384;SDS011;36795;45.028;38.968;2022-12-29T11:47:00;20.10;;;3.30;;
49384;SDS011;36795;45.028;38.968;2022-12-29T11:49:50;15.00;;;2.90;;
49384;SDS011;36795;45.028;38.968;2022-12-29T11:52:38;17.05;;;3.37;;
49384;SDS011;36795;45.028;38.968;2022-12-29T11:55:24;10.27;;;2.35;;
49384;SDS011;36795;45.028;38.968;2022-12-29T11:58:11;14.50;;;2.78;;
49384;SDS011;36795;45.028;38.968;2022-12-29T12:01:06;13.85;;;3.08;;
49384;SDS011;36795;45.028;38.968;2022-12-29T12:03:59;9.73;;;2.42;;
49384;SDS011;36795;45.028;38.968;2022-12-29T12:07:04;8.93;;;2.30;;
49384;SDS011;36795;45.028;38.968;2022-12-29T12:10:03;12.20;;;2.92;;
49384;SDS011;36795;45.028;38.968;2022-12-29T12:12:58;14.32;;;2.60;;
49384;SDS011;36795;45.028;38.968;2022-12-29T12:15:49;11.90;;;2.70;;
49384;SDS011;36795;45.028;38.968;2022-12-29T12:18:39;15.13;;;2.97;;
49384;SDS011;36795;45.028;38.968;2022-12-29T12:28:05;11.57;;;2.90;;
49384;SDS011;36795;45.028;38.968;2022-12-29T12:30:36;8.40;;;2.15;;
49384;SDS011;36795;45.028;38.968;2022-12-29T12:33:27;16.77;;;3.58;;
49384;SDS011;36795;45.028;38.968;2022-12-29T12:36:22;12.60;;;2.90;;
49384;SDS011;36795;45.028;38.968;2022-12-29T13:21:05;19.20;;;3.62;;
49384;SDS011;36795;45.028;38.968;2022-12-29T13:26:50;20.33;;;4.20;;
49384;SDS011;36795;45.028;38.968;2022-12-29T13:38:43;37.35;;;5.62;;
49384;SDS011;36795;45.028;38.968;2022-12-29T13:41:32;16.73;;;3.97;;
49384;SDS011;36795;45.028;38.968;2022-12-29T13:50:22;23.50;;;5.05;;
49384;SDS011;36795;45.028;38.968;2022-12-29T13:55:58;21.95;;;4.25;;
49384;SDS011;36795;45.028;38.968;2022-12-29T14:01:53;24.65;;;5.35;;
49384;SDS011;36795;45.028;38.968;2022-12-29T14:04:55;18.55;;;5.10;;
49384;SDS011;36795;45.028;38.968;2022-12-29T14:07:41;23.75;;;5.78;;
49384;SDS011;36795;45.028;38.968;2022-12-29T14:10:35;22.50;;;5.10;;
49384;SDS011;36795;45.028;38.968;2022-12-29T14:13:22;24.90;;;5.35;;
49384;SDS011;36795;45.028;38.968;2022-12-29T14:16:11;18.15;;;4.95;;
49384;SDS011;36795;45.028;38.968;2022-12-29T14:19:11;24.52;;;5.78;;
49384;SDS011;36795;45.028;38.968;2022-12-29T14:22:00;26.77;;;5.90;;
49384;SDS011;36795;45.028;38.968;2022-12-29T14:24:47;23.23;;;5.70;;
49384;SDS011;36795;45.028;38.968;2022-12-29T14:27:43;19.62;;;4.37;;
49384;SDS011;36795;45.028;38.968;2022-12-29T14:39:44;32.00;;;6.45;;
49384;SDS011;36795;45.028;38.968;2022-12-29T14:42:30;26.33;;;6.45;;
49384;SDS011;36795;45.028;38.968;2022-12-29T14:48:19;31.02;;;10.93;;
49384;SDS011;36795;45.028;38.968;2022-12-29T14:51:17;23.10;;;6.45;;
49384;SDS011;36795;45.028;38.968;2022-12-29T14:54:47;23.48;;;6.20;;
49384;SDS011;36795;45.028;38.968;2022-12-29T14:57:25;20.00;;;4.93;;
49384;SDS011;36795;45.028;38.968;2022-12-29T15:00:22;27.17;;;6.55;;
49384;SDS011;36795;45.028;38.968;2022-12-29T15:03:29;27.08;;;5.60;;
49384;SDS011;36795;45.028;38.968;2022-12-29T15:06:15;14.30;;;4.10;;
49384;SDS011;36795;45.028;38.968;2022-12-29T15:09:06;25.60;;;5.45;;
49384;SDS011;36795;45.028;38.968;2022-12-29T15:11:57;30.70;;;6.07;;
49384;SDS011;36795;45.028;38.968;2022-12-29T15:14:52;22.55;;;5.80;;
49384;SDS011;36795;45.028;38.968;2022-12-29T15:17:38;17.10;;;3.75;;
49384;SDS011;36795;45.028;38.968;2022-12-29T15:20:29;18.27;;;4.22;;
49384;SDS011;36795;45.028;38.968;2022-12-29T15:23:16;20.33;;;4.60;;
49384;SDS011;36795;45.028;38.968;2022-12-29T15:26:05;21.75;;;4.62;;
49384;SDS011;36795;45.028;38.968;2022-12-29T15:28:52;18.87;;;3.97;;
49384;SDS011;36795;45.028;38.968;2022-12-29T15:31:45;23.70;;;4.18;;
49384;SDS011;36795;45.028;38.968;2022-12-29T15:34:33;16.98;;;3.55;;
49384;SDS011;36795;45.028;38.968;2022-12-29T15:37:27;19.37;;;3.47;;
49384;SDS011;36795;45.028;38.968;2022-12-29T15:40:28;17.00;;;3.30;;
49384;SDS011;36795;45.028;38.968;2022-12-29T15:46:07;17.40;;;3.40;;
49384;SDS011;36795;45.028;38.968;2022-12-29T15:48:53;13.43;;;3.50;;
49384;SDS011;36795;45.028;38.968;2022-12-29T15:51:39;16.50;;;3.72;;
49384;SDS011;36795;45.028;38.968;2022-12-29T15:54:27;12.15;;;2.87;;
49384;SDS011;36795;45.028;38.968;2022-12-29T15:57:36;24.98;;;4.93;;
49384;SDS011;36795;45.028;38.968;2022-12-29T16:03:11;20.60;;;4.22;;
49384;SDS011;36795;45.028;38.968;2022-12-29T16:06:09;16.30;;;3.78;;
49384;SDS011;36795;45.028;38.968;2022-12-29T16:09:00;15.73;;;3.70;;
49384;SDS011;36795;45.028;38.968;2022-12-29T16:11:50;18.77;;;3.70;;
49384;SDS011;36795;45.028;38.968;2022-12-29T16:17:24;21.83;;;4.50;;
49384;SDS011;36795;45.028;38.968;2022-12-29T16:20:22;20.58;;;6.10;;
49384;SDS011;36795;45.028;38.968;2022-12-29T16:23:16;29.92;;;6.40;;
49384;SDS011;36795;45.028;38.968;2022-12-29T16:26:04;16.70;;;4.10;;
49384;SDS011;36795;45.028;38.968;2022-12-29T16:29:00;23.00;;;6.25;;
49384;SDS011;36795;45.028;38.968;2022-12-29T16:37:28;17.92;;;4.87;;
49384;SDS011;36795;45.028;38.968;2022-12-29T16:43:04;15.82;;;3.97;;
49384;SDS011;36795;45.028;38.968;2022-12-29T16:46:55;18.42;;;4.10;;
49384;SDS011;36795;45.028;38.968;2022-12-29T16:49:17;16.45;;;4.40;;
49384;SDS011;36795;45.028;38.968;2022-12-29T16:55:31;19.15;;;5.43;;
49384;SDS011;36795;45.028;38.968;2022-12-29T16:58:20;19.73;;;4.70;;
49384;SDS011;36795;45.028;38.968;2022-12-29T17:01:08;25.15;;;6.10;;
49384;SDS011;36795;45.028;38.968;2022-12-29T17:04:00;19.60;;;4.55;;
49384;SDS011;36795;45.028;38.968;2022-12-29T17:06:47;17.58;;;3.95;;
49384;SDS011;36795;45.028;38.968;2022-12-29T17:09:33;18.65;;;4.28;;
49384;SDS011;36795;45.028;38.968;2022-12-29T17:12:24;20.50;;;5.25;;
49384;SDS011;36795;45.028;38.968;2022-12-29T17:17:58;18.90;;;4.57;;
49384;SDS011;36795;45.028;38.968;2022-12-29T17:20:47;19.00;;;4.78;;
49384;SDS011;36795;45.028;38.968;2022-12-29T17:23:34;23.92;;;6.70;;
49384;SDS011;36795;45.028;38.968;2022-12-29T17:26:20;24.40;;;5.45;;
49384;SDS011;36795;45.028;38.968;2022-12-29T17:29:07;17.42;;;4.65;;
49384;SDS011;36795;45.028;38.968;2022-12-29T17:31:56;19.30;;;4.43;;
49384;SDS011;36795;45.028;38.968;2022-12-29T17:34:42;20.50;;;4.75;;
49384;SDS011;36795;45.028;38.968;2022-12-29T17:37:30;23.10;;;5.15;;
49384;SDS011;36795;45.028;38.968;2022-12-29T17:40:21;18.87;;;4.43;;
49384;SDS011;36795;45.028;38.968;2022-12-29T17:43:07;22.30;;;4.65;;
49384;SDS011;36795;45.028;38.968;2022-12-29T17:45:57;15.35;;;3.45;;
49384;SDS011;36795;45.028;38.968;2022-12-29T17:48:44;19.62;;;4.57;;
49384;SDS011;36795;45.028;38.968;2022-12-29T17:51:30;19.42;;;4.70;;
49384;SDS011;36795;45.028;38.968;2022-12-29T17:54:25;14.30;;;3.92;;
49384;SDS011;36795;45.028;38.968;2022-12-29T17:57:13;13.57;;;3.25;;
49384;SDS011;36795;45.028;38.968;2022-12-29T17:59:59;16.70;;;3.60;;
49384;SDS011;36795;45.028;38.968;2022-12-29T18:02:46;15.25;;;3.78;;
49384;SDS011;36795;45.028;38.968;2022-12-29T18:05:33;13.52;;;3.40;;
49384;SDS011;36795;45.028;38.968;2022-12-29T18:08:19;22.33;;;4.05;;
49384;SDS011;36795;45.028;38.968;2022-12-29T18:11:23;24.63;;;4.22;;
49384;SDS011;36795;45.028;38.968;2022-12-29T18:14:13;13.10;;;3.47;;
49384;SDS011;36795;45.028;38.968;2022-12-29T18:16:59;10.13;;;2.78;;
49384;SDS011;36795;45.028;38.968;2022-12-29T18:19:45;17.73;;;3.25;;
49384;SDS011;36795;45.028;38.968;2022-12-29T18:22:32;17.23;;;3.37;;
49384;SDS011;36795;45.028;38.968;2022-12-29T18:25:20;13.38;;;3.05;;
49384;SDS011;36795;45.028;38.968;2022-12-29T18:28:07;10.50;;;2.65;;
49384;SDS011;36795;45.028;38.968;2022-12-29T18:30:54;17.12;;;3.55;;
49384;SDS011;36795;45.028;38.968;2022-12-29T18:33:41;18.37;;;4.00;;
49384;SDS011;36795;45.028;38.968;2022-12-29T18:36:27;11.52;;;2.90;;
49384;SDS011;36795;45.028;38.968;2022-12-29T18:39:14;17.60;;;3.72;;
49384;SDS011;36795;45.028;38.968;2022-12-29T18:42:02;16.37;;;3.92;;
49384;SDS011;36795;45.028;38.968;2022-12-29T18:44:48;15.15;;;3.67;;
49384;SDS011;36795;45.028;38.968;2022-12-29T18:47:35;11.85;;;3.22;;
49384;SDS011;36795;45.028;38.968;2022-12-29T18:50:21;15.40;;;3.42;;
49384;SDS011;36795;45.028;38.968;2022-12-29T18:53:14;18.73;;;4.57;;
49384;SDS011;36795;45.028;38.968;2022-12-29T18:56:01;14.43;;;3.47;;
49384;SDS011;36795;45.028;38.968;2022-12-29T18:58:47;16.35;;;3.53;;
49384;SDS011;36795;45.028;38.968;2022-12-29T19:01:34;14.32;;;3.62;;
49384;SDS011;36795;45.028;38.968;2022-12-29T19:04:20;14.25;;;3.67;;